Time;durP1;ratioP1;P1;durP2;ratioP2;P2;SDS_P1;SDS_P2;PMS_P1;PMS_P2;Temp;Humidity;BMP_temperature;BMP_pressure;BME280_temperature;BME280_humidity;BME280_pressure;Samples;Min_cycle;Max_cycle;Signal;HPM_P1;HPM_P2
2022/05/30 00:03:31;;;;;;;2.27;2.17;;;12.50;35.50;;;;;;10497552;28;20227;-76
2022/05/30 00:08:34;;;;;;;2.03;1.93;;;12.40;35.30;;;;;;10499190;28;20586;-77
2022/05/30 00:13:39;;;;;;;1.93;1.70;;;12.40;35.30;;;;;;10495503;28;20231;-77
2022/05/30 00:18:43;;;;;;;1.80;1.70;;;12.40;35.80;;;;;;10497658;28;20224;-77
2022/05/30 00:23:46;;;;;;;1.80;1.70;;;12.30;35.40;;;;;;10496449;28;20228;-77
2022/05/30 00:28:51;;;;;;;21.63;1.73;;;12.30;35.20;;;;;;10501746;28;20212;-77
2022/05/30 00:33:55;;;;;;;1.70;1.60;;;12.30;35.50;;;;;;10497861;28;20231;-77
2022/05/30 00:38:58;;;;;;;15.80;1.80;;;12.20;35.10;;;;;;10496025;28;20303;-77
2022/05/30 00:44:02;;;;;;;1.40;1.40;;;12.10;35.10;;;;;;10493543;28;20228;-78
2022/05/30 00:49:09;;;;;;;8.03;1.63;;;12.00;35.60;;;;;;10498231;28;20220;-77
2022/05/30 00:54:17;;;;;;;1.90;1.80;;;11.90;35.60;;;;;;10505039;28;20251;-77
2022/05/30 00:59:22;;;;;;;1.87;1.77;;;11.90;36.00;;;;;;10506239;28;20254;-77
2022/05/30 01:09:47;;;;;;;5.87;1.50;;;11.80;35.80;;;;;;10502676;28;20227;-77
2022/05/30 01:14:52;;;;;;;15.77;2.00;;;11.80;35.50;;;;;;10506376;28;20231;-77
2022/05/30 01:19:58;;;;;;;4.80;1.47;;;11.70;35.60;;;;;;10506075;28;20216;-77
2022/05/30 01:25:10;;;;;;;3.00;1.70;;;11.50;35.70;;;;;;10506912;28;20255;-77
2022/05/30 01:30:17;;;;;;;1.30;1.30;;;11.40;36.60;;;;;;10501741;28;20220;-77
2022/05/30 01:35:24;;;;;;;2.20;1.80;;;11.30;36.60;;;;;;10506111;28;20228;-77
2022/05/30 01:40:27;;;;;;;2.70;2.03;;;11.30;37.00;;;;;;10506173;28;20240;-77
2022/05/30 01:45:32;;;;;;;8.57;1.80;;;11.30;36.30;;;;;;10506768;28;20735;-77
2022/05/30 01:50:35;;;;;;;15.77;2.10;;;11.40;36.50;;;;;;10504126;28;20243;-77
2022/05/30 01:55:39;;;;;;;18.13;2.13;;;11.40;35.90;;;;;;10499181;28;20763;-77
2022/05/30 02:00:43;;;;;;;1.77;1.67;;;11.30;35.60;;;;;;10507458;28;20319;-77
2022/05/30 02:05:46;;;;;;;3.17;2.17;;;11.10;36.10;;;;;;10503261;28;20223;-77
2022/05/30 02:10:50;;;;;;;2.30;1.93;;;11.00;36.20;;;;;;10501047;28;20220;-77
2022/05/30 02:21:16;;;;;;;12.33;2.00;;;10.90;36.20;;;;;;10503103;28;20228;-77
2022/05/30 02:26:20;;;;;;;8.13;1.90;;;10.80;35.90;;;;;;10499768;28;20227;-77
2022/05/30 02:31:25;;;;;;;15.37;1.97;;;10.70;35.90;;;;;;10500117;28;21453;-77
2022/05/30 02:36:40;;;;;;;28.17;2.13;;;10.60;36.30;;;;;;10504927;28;20321;-77
2022/05/30 02:41:44;;;;;;;4.53;2.23;;;10.50;36.10;;;;;;10499845;28;20234;-77
2022/05/30 02:46:50;;;;;;;2.27;2.17;;;10.30;36.50;;;;;;10524345;27;20223;-76
2022/05/30 02:51:54;;;;;;;15.87;2.10;;;10.30;37.20;;;;;;10544509;27;20653;-77
2022/05/30 02:56:59;;;;;;;2.03;1.93;;;10.30;36.70;;;;;;10539878;28;20214;-77
2022/05/30 03:02:04;;;;;;;2.07;1.97;;;10.30;37.20;;;;;;10525217;28;20223;-77
2022/05/30 03:07:08;;;;;;;2.00;1.90;;;10.30;37.50;;;;;;10543518;28;20223;-77
2022/05/30 03:12:11;;;;;;;2.13;2.03;;;10.40;37.10;;;;;;10544894;28;20223;-77
2022/05/30 03:17:16;;;;;;;1.83;1.73;;;10.40;37.00;;;;;;10533976;28;20550;-77
2022/05/30 03:22:20;;;;;;;31.77;2.67;;;10.40;37.30;;;;;;10534689;28;20230;-77
2022/05/30 03:27:23;;;;;;;39.83;2.73;;;10.50;36.80;;;;;;10540621;27;20235;-77
2022/05/30 03:32:27;;;;;;;85.67;3.40;;;10.40;36.60;;;;;;10544908;27;20227;-77
2022/05/30 03:37:31;;;;;;;59.83;2.97;;;10.30;36.90;;;;;;10542353;27;20235;-77
2022/05/30 03:42:34;;;;;;;7.73;2.03;;;10.20;36.50;;;;;;10540867;28;20238;-77
2022/05/30 03:47:40;;;;;;;3.17;2.10;;;10.00;36.50;;;;;;10544462;28;20596;-77
2022/05/30 03:52:43;;;;;;;59.47;2.80;;;9.90;38.40;;;;;;10541985;27;20231;-77
2022/05/30 03:57:47;;;;;;;27.30;2.53;;;9.80;38.10;;;;;;10538256;27;20575;-77
2022/05/30 04:02:51;;;;;;;39.47;2.70;;;9.80;38.20;;;;;;10539372;27;20319;-77
2022/05/30 04:07:55;;;;;;;96.07;3.60;;;9.70;38.50;;;;;;10545627;27;20616;-77
2022/05/30 04:13:02;;;;;;;64.90;3.20;;;9.70;39.00;;;;;;10543177;27;20243;-77
2022/05/30 04:18:08;;;;;;;86.47;3.17;;;9.70;39.20;;;;;;10538593;27;20471;-77
2022/05/30 04:23:11;;;;;;;2.43;2.23;;;9.70;39.10;;;;;;10543293;28;20224;-77
2022/05/30 04:28:14;;;;;;;37.10;2.73;;;9.70;38.60;;;;;;10544500;28;20230;-77
2022/05/30 04:33:19;;;;;;;3.20;2.20;;;9.70;38.60;;;;;;10546622;28;20226;-77
2022/05/30 04:38:22;;;;;;;2.50;2.30;;;9.70;39.30;;;;;;10548101;28;20239;-77
2022/05/30 04:43:25;;;;;;;6.40;2.43;;;9.70;39.00;;;;;;10543019;28;20218;-77
2022/05/30 04:48:29;;;;;;;2.57;2.37;;;9.80;39.10;;;;;;10545972;28;20223;-78
2022/05/30 04:53:33;;;;;;;3.00;2.50;;;9.80;39.80;;;;;;10552725;28;20266;-78
2022/05/30 04:58:36;;;;;;;2.60;2.50;;;9.90;39.70;;;;;;10562635;28;20255;-78
2022/05/30 05:03:43;;;;;;;3.27;2.73;;;10.10;38.90;;;;;;10557463;28;20725;-79
2022/05/30 05:08:54;;;;;;;2.90;2.30;;;10.20;39.60;;;;;;10567894;28;20691;-79
2022/05/30 05:13:58;;;;;;;8.00;3.33;;;10.40;40.30;;;;;;10568377;28;20600;-78
2022/05/30 05:19:03;;;;;;;5.23;3.20;;;10.50;38.80;;;;;;10556054;28;20242;-79
2022/05/30 05:24:09;;;;;;;6.33;3.80;;;10.40;39.30;;;;;;10559984;28;20227;-78
2022/05/30 05:29:12;;;;;;;8.43;4.43;;;10.40;39.30;;;;;;10556648;28;20218;-78
2022/05/30 05:34:17;;;;;;;4.80;4.27;;;10.50;38.90;;;;;;10552975;27;20227;-78
2022/05/30 05:39:21;;;;;;;4.70;4.40;;;10.50;39.60;;;;;;10552478;27;20220;-78
2022/05/30 05:44:24;;;;;;;5.13;4.73;;;10.60;39.30;;;;;;10549764;28;20795;-78
2022/05/30 05:49:28;;;;;;;5.53;5.13;;;10.70;39.40;;;;;;10552183;27;20219;-78
2022/05/30 05:54:31;;;;;;;5.83;5.33;;;10.80;40.00;;;;;;10551824;27;20227;-78
2022/05/30 05:59:35;;;;;;;7.77;7.17;;;11.00;39.70;;;;;;10550124;28;20271;-78
2022/05/30 06:04:40;;;;;;;9.23;8.43;;;11.10;40.00;;;;;;10553311;27;20454;-78
2022/05/30 06:09:43;;;;;;;8.20;7.60;;;11.30;41.00;;;;;;10556817;27;20234;-78
2022/05/30 06:14:46;;;;;;;8.73;8.03;;;11.50;40.10;;;;;;10551345;28;20231;-78
2022/05/30 06:19:50;;;;;;;9.30;8.50;;;11.60;39.90;;;;;;10536458;28;20249;-78
2022/05/30 06:24:53;;;;;;;8.90;8.20;;;11.70;40.60;;;;;;10555036;28;20234;-78
2022/05/30 06:29:57;;;;;;;9.00;8.30;;;11.90;40.30;;;;;;10557588;28;20234;-78
2022/05/30 06:35:01;;;;;;;9.17;8.33;;;12.00;40.80;;;;;;10558024;28;20227;-78
2022/05/30 06:40:06;;;;;;;9.33;8.43;;;12.10;40.60;;;;;;10553766;28;20220;-78
2022/05/30 06:45:10;;;;;;;7.77;7.07;;;12.30;40.50;;;;;;10548177;28;20235;-78
2022/05/30 06:50:14;;;;;;;7.73;7.13;;;12.40;40.20;;;;;;10553779;28;20215;-78
2022/05/30 06:55:17;;;;;;;8.23;7.57;;;12.50;40.50;;;;;;10549015;27;20608;-78
2022/05/30 07:00:22;;;;;;;6.33;5.83;;;12.60;40.10;;;;;;10552804;28;20238;-78
2022/05/30 07:05:26;;;;;;;6.87;6.23;;;12.80;40.00;;;;;;10553273;28;20700;-77
2022/05/30 07:10:31;;;;;;;6.23;5.80;;;12.90;41.10;;;;;;10551756;28;20231;-77
2022/05/30 07:15:36;;;;;;;5.83;5.30;;;13.10;40.60;;;;;;10557699;28;20262;-78
2022/05/30 07:20:42;;;;;;;5.77;5.27;;;13.20;40.70;;;;;;10555521;28;20591;-77
2022/05/30 07:25:45;;;;;;;4.80;4.50;;;13.40;41.60;;;;;;10555981;27;20235;-77
2022/05/30 07:30:48;;;;;;;5.07;4.67;;;13.60;40.80;;;;;;10562539;27;20600;-78
2022/05/30 07:35:53;;;;;;;4.60;4.30;;;13.80;40.80;;;;;;10557538;28;20223;-78
2022/05/30 07:40:57;;;;;;;4.40;4.10;;;14.00;40.90;;;;;;10558804;28;20257;-78
2022/05/30 07:46:03;;;;;;;3.50;3.30;;;14.20;41.00;;;;;;10527684;28;20239;-78
2022/05/30 07:51:10;;;;;;;3.43;3.23;;;14.50;41.00;;;;;;10552589;28;20724;-78
2022/05/30 07:56:19;;;;;;;3.73;3.43;;;14.70;40.60;;;;;;10559931;28;20287;-78
2022/05/30 08:01:24;;;;;;;3.90;3.57;;;15.00;40.20;;;;;;10559656;28;20247;-78
2022/05/30 08:06:32;;;;;;;3.50;3.30;;;15.20;40.00;;;;;;10565690;28;20253;-78
2022/05/30 08:11:36;;;;;;;4.20;3.80;;;15.40;40.40;;;;;;10578893;27;20214;-78
2022/05/30 08:16:40;;;;;;;3.63;3.40;;;15.50;40.20;;;;;;10573500;27;20271;-79
2022/05/30 08:21:53;;;;;;;2.90;2.70;;;15.80;39.80;;;;;;10572520;28;20246;-79
2022/05/30 08:26:57;;;;;;;2.47;2.37;;;16.00;39.70;;;;;;10568873;27;20235;-79
2022/05/30 08:32:00;;;;;;;3.03;2.83;;;16.30;39.60;;;;;;10568639;27;20225;-78
2022/05/30 08:37:06;;;;;;;2.40;2.20;;;16.50;39.60;;;;;;10557840;27;20215;-78
2022/05/30 08:42:11;;;;;;;2.77;2.37;;;16.80;38.70;;;;;;10576293;27;20297;-79
2022/05/30 08:47:21;;;;;;;2.30;2.20;;;17.00;38.00;;;;;;10568488;27;20237;-77
2022/05/30 08:52:37;;;;;;;2.40;2.20;;;17.10;36.90;;;;;;10562273;27;20284;-78
2022/05/30 08:57:54;;;;;;;2.97;2.50;;;17.20;37.40;;;;;;10558254;28;20223;-78
2022/05/30 09:03:02;;;;;;;2.30;2.20;;;17.30;37.00;;;;;;10563603;27;20314;-79
2022/05/30 09:08:14;;;;;;;1.87;1.77;;;17.50;36.70;;;;;;10546170;28;20231;-78
2022/05/30 09:13:21;;;;;;;1.90;1.80;;;17.60;35.70;;;;;;10544491;27;20249;-78
2022/05/30 09:18:31;;;;;;;2.20;2.00;;;17.70;35.60;;;;;;10559806;28;20276;-77
2022/05/30 09:23:35;;;;;;;3.03;2.00;;;17.90;35.60;;;;;;10561196;28;20235;-76
2022/05/30 09:28:41;;;;;;;1.97;1.63;;;17.90;35.80;;;;;;10560711;27;20281;-77
2022/05/30 09:33:47;;;;;;;1.70;1.60;;;18.00;35.20;;;;;;10558874;27;20318;-77
2022/05/30 09:38:57;;;;;;;1.70;1.60;;;18.10;35.50;;;;;;10555114;27;20220;-77
2022/05/30 09:44:04;;;;;;;1.50;1.40;;;18.20;34.20;;;;;;10557791;28;20315;-77
2022/05/30 09:49:10;;;;;;;2.00;1.50;;;18.30;34.70;;;;;;10552364;27;20582;-76
2022/05/30 09:54:34;;;;;;;1.50;1.40;;;18.50;34.80;;;;;;10555484;27;20231;-73
2022/05/30 09:59:40;;;;;;;1.40;1.30;;;18.60;33.80;;;;;;10551970;27;20318;-78
2022/05/30 10:04:44;;;;;;;1.37;1.33;;;18.70;33.80;;;;;;10561668;27;20761;-80
2022/05/30 10:09:58;;;;;;;1.47;1.37;;;18.80;34.60;;;;;;10563769;27;20222;-78
2022/05/30 10:15:01;;;;;;;2.40;1.40;;;18.90;33.50;;;;;;10558790;27;20228;-78
2022/05/30 10:20:13;;;;;;;1.67;1.47;;;19.20;34.70;;;;;;10551253;27;20223;-78
2022/05/30 10:31:13;;;;;;;1.33;1.30;;;19.60;32.30;;;;;;10560935;27;20223;-78
2022/05/30 10:36:23;;;;;;;1.20;1.10;;;19.80;31.50;;;;;;10510832;28;20220;-79
2022/05/30 10:41:36;;;;;;;1.20;1.10;;;20.00;31.70;;;;;;10507226;28;20240;-78
2022/05/30 10:46:46;;;;;;;1.33;1.30;;;20.10;31.30;;;;;;10511708;28;20705;-78
2022/05/30 10:51:55;;;;;;;1.37;1.27;;;20.30;30.40;;;;;;10505219;28;20265;-76
2022/05/30 10:57:10;;;;;;;1.47;1.40;;;20.40;30.60;;;;;;10504523;28;20659;-76
2022/05/30 11:02:22;;;;;;;1.30;1.20;;;20.50;29.80;;;;;;10538812;27;20237;-76
2022/05/30 11:07:46;;;;;;;1.40;1.30;;;20.50;30.00;;;;;;10538550;27;20239;-76
2022/05/30 11:12:59;;;;;;;1.27;1.20;;;20.60;29.50;;;;;;10531284;27;20226;-77
2022/05/30 11:18:10;;;;;;;1.10;1.00;;;20.70;29.40;;;;;;10528727;27;20223;-75
2022/05/30 11:23:14;;;;;;;1.37;1.27;;;20.90;29.30;;;;;;10528901;27;20233;-75
2022/05/30 11:28:30;;;;;;;1.07;1.07;;;20.90;29.90;;;;;;10534278;27;20223;-76
2022/05/30 11:34:02;;;;;;;0.97;0.97;;;21.00;28.50;;;;;;10536562;27;20231;-75
2022/05/30 11:39:17;;;;;;;0.80;0.80;;;21.10;29.30;;;;;;10529727;27;20850;-73
2022/05/30 11:44:45;;;;;;;1.00;0.90;;;21.10;27.40;;;;;;10532762;27;20813;-74
2022/05/30 11:50:00;;;;;;;1.03;1.03;;;21.20;27.40;;;;;;10526439;27;20933;-75
2022/05/30 11:55:20;;;;;;;0.90;0.90;;;21.30;27.80;;;;;;10545474;27;20218;-74
2022/05/30 12:00:33;;;;;;;1.17;1.00;;;21.30;28.00;;;;;;10534428;27;20257;-76
2022/05/30 12:05:54;;;;;;;1.00;1.00;;;21.40;26.70;;;;;;10544452;27;20234;-77
2022/05/30 12:11:11;;;;;;;0.97;0.97;;;21.50;26.70;;;;;;10552066;27;20306;-79
2022/05/30 12:16:25;;;;;;;1.30;1.00;;;21.40;26.30;;;;;;10558944;27;20652;-77
2022/05/30 12:27:34;;;;;;;0.90;0.90;;;21.50;26.40;;;;;;10546014;27;20225;-78
2022/05/30 12:32:41;;;;;;;1.00;1.00;;;21.50;26.30;;;;;;10541942;27;20329;-80
2022/05/30 12:37:46;;;;;;;1.10;1.00;;;21.50;26.40;;;;;;10552168;28;20223;-80
2022/05/30 12:43:02;;;;;;;1.30;1.20;;;21.50;26.30;;;;;;10559729;27;20276;-79
2022/05/30 12:48:17;;;;;;;1.27;1.00;;;21.50;25.80;;;;;;10549405;27;20219;-78
2022/05/30 12:53:24;;;;;;;0.73;0.73;;;21.70;25.50;;;;;;10568308;27;20226;-79
2022/05/30 12:59:00;;;;;;;1.00;1.00;;;21.80;26.10;;;;;;10572333;27;20230;-79
2022/05/30 13:04:08;;;;;;;1.00;0.90;;;22.00;25.30;;;;;;10583175;28;20231;-80
2022/05/30 13:09:19;;;;;;;2.03;0.97;;;22.00;24.00;;;;;;10572884;27;20224;-83
2022/05/30 13:14:36;;;;;;;0.93;0.90;;;21.90;22.50;;;;;;10572073;28;20241;-79
2022/05/30 13:19:44;;;;;;;0.90;0.90;;;21.80;22.90;;;;;;10561787;27;20822;-80
2022/05/30 13:24:47;;;;;;;0.80;0.80;;;21.80;22.50;;;;;;10562725;28;20230;-82
2022/05/30 13:29:51;;;;;;;0.80;0.80;;;21.80;25.00;;;;;;10573516;27;20606;-82
2022/05/30 13:34:59;;;;;;;0.87;0.87;;;21.80;25.00;;;;;;10584207;27;20524;-83
2022/05/30 13:40:06;;;;;;;0.80;0.80;;;21.80;23.90;;;;;;10538000;28;20228;-83
2022/05/30 13:45:11;;;;;;;1.10;1.00;;;21.80;23.60;;;;;;10525129;28;20284;-83
2022/05/30 13:50:19;;;;;;;0.80;0.80;;;21.90;24.70;;;;;;10506108;28;20227;-81
2022/05/30 13:55:24;;;;;;;0.63;0.63;;;21.90;23.20;;;;;;10542041;27;20280;-80
2022/05/30 14:00:31;;;;;;;0.80;0.80;;;22.00;23.90;;;;;;10548013;27;20579;-81
2022/05/30 14:05:40;;;;;;;1.20;1.00;;;22.10;23.20;;;;;;10556175;27;20238;-79
2022/05/30 14:10:45;;;;;;;1.27;0.97;;;22.00;23.20;;;;;;10561457;27;20230;-79
2022/05/30 14:15:57;;;;;;;0.87;0.87;;;22.00;24.00;;;;;;10558666;27;20238;-79
2022/05/30 14:21:07;;;;;;;2.10;0.97;;;21.90;23.90;;;;;;10561455;27;20729;-79
2022/05/30 14:26:13;;;;;;;0.97;0.97;;;21.90;23.30;;;;;;10548813;28;20219;-79
2022/05/30 14:31:19;;;;;;;1.00;0.90;;;21.90;23.80;;;;;;10565776;27;20298;-79
2022/05/30 14:36:35;;;;;;;0.97;0.90;;;21.90;23.40;;;;;;10562316;28;20314;-80
2022/05/30 14:41:38;;;;;;;0.80;0.80;;;21.90;22.90;;;;;;10565098;28;20237;-80
2022/05/30 14:46:45;;;;;;;0.97;0.97;;;22.00;24.10;;;;;;10567906;28;20251;-79
2022/05/30 14:51:54;;;;;;;0.90;0.90;;;22.00;22.60;;;;;;10560764;28;20222;-80
2022/05/30 14:57:00;;;;;;;1.70;1.07;;;22.00;20.70;;;;;;10554609;27;20211;-79
2022/05/30 15:02:03;;;;;;;0.90;0.90;;;22.00;22.30;;;;;;10556930;28;20826;-79
2022/05/30 15:07:13;;;;;;;1.03;0.90;;;22.10;22.30;;;;;;10554046;27;20622;-79
2022/05/30 15:12:17;;;;;;;1.20;0.90;;;22.20;20.90;;;;;;10551017;28;20715;-78
2022/05/30 15:17:20;;;;;;;2.10;0.90;;;22.30;21.50;;;;;;10543838;27;22591;-79
2022/05/30 15:22:25;;;;;;;1.00;1.00;;;22.40;21.40;;;;;;10556746;27;20233;-80
2022/05/30 15:27:29;;;;;;;1.83;0.90;;;22.40;20.80;;;;;;10558725;28;20237;-80
2022/05/30 15:32:33;;;;;;;1.57;1.00;;;22.50;21.40;;;;;;10555020;28;20235;-80
2022/05/30 15:37:37;;;;;;;1.00;1.00;;;22.60;20.60;;;;;;10553409;28;20909;-80
2022/05/30 15:42:41;;;;;;;0.83;0.83;;;22.60;20.20;;;;;;10558757;27;20580;-79
2022/05/30 15:47:45;;;;;;;1.00;1.00;;;22.60;20.60;;;;;;10553852;28;20229;-79
2022/05/30 15:58:18;;;;;;;0.90;0.90;;;22.70;18.50;;;;;;10515941;28;20652;-79
2022/05/30 16:03:23;;;;;;;0.93;0.73;;;22.80;19.20;;;;;;10522796;28;20714;-78
2022/05/30 16:08:32;;;;;;;1.00;1.00;;;22.80;20.30;;;;;;10502499;28;20282;-79
2022/05/30 16:13:36;;;;;;;0.90;0.90;;;22.90;18.80;;;;;;10509567;28;20228;-78
2022/05/30 16:18:40;;;;;;;1.60;1.00;;;22.90;19.80;;;;;;10504655;28;20250;-77
2022/05/30 16:23:45;;;;;;;1.00;1.00;;;23.00;19.80;;;;;;10507857;28;20235;-77
2022/05/30 16:28:49;;;;;;;1.00;1.00;;;23.00;18.70;;;;;;10512588;28;20230;-78
2022/05/30 16:33:56;;;;;;;0.90;0.90;;;23.00;19.60;;;;;;10522774;28;20216;-79
2022/05/30 16:39:01;;;;;;;0.90;0.90;;;22.90;19.40;;;;;;10536692;28;20251;-79
2022/05/30 16:44:05;;;;;;;0.90;0.90;;;22.90;18.90;;;;;;10520641;28;20227;-79
2022/05/30 16:49:11;;;;;;;1.00;1.00;;;22.90;19.30;;;;;;10526587;28;20233;-79
2022/05/30 16:54:16;;;;;;;0.80;0.80;;;22.90;19.40;;;;;;10521508;28;20224;-79
2022/05/30 16:59:19;;;;;;;1.10;1.00;;;23.00;18.60;;;;;;10522643;28;20224;-79
2022/05/30 17:04:23;;;;;;;0.90;0.90;;;23.00;18.80;;;;;;10531410;28;20235;-78
2022/05/30 17:09:28;;;;;;;1.40;0.97;;;23.00;19.00;;;;;;10527762;28;20224;-79
2022/05/30 17:14:33;;;;;;;1.90;0.90;;;23.00;18.40;;;;;;10558787;28;20310;-79
2022/05/30 17:19:36;;;;;;;0.70;0.70;;;23.00;18.50;;;;;;10566265;27;20228;-79
2022/05/30 17:24:40;;;;;;;2.20;1.10;;;23.00;18.50;;;;;;10565869;28;20219;-79
2022/05/30 17:29:46;;;;;;;1.10;1.00;;;23.00;18.20;;;;;;10552065;27;20224;-80
2022/05/30 17:34:49;;;;;;;0.93;0.93;;;23.00;18.50;;;;;;10543301;28;20777;-80
2022/05/30 17:39:58;;;;;;;1.07;0.97;;;22.90;18.80;;;;;;10526152;28;20275;-78
2022/05/30 17:45:01;;;;;;;0.90;0.90;;;22.90;18.20;;;;;;10544444;27;20239;-78
2022/05/30 17:50:07;;;;;;;0.80;0.80;;;22.90;18.90;;;;;;10522346;28;20649;-78
2022/05/30 17:55:14;;;;;;;1.07;1.00;;;22.90;18.60;;;;;;10540832;27;20223;-78
2022/05/30 18:00:20;;;;;;;1.33;1.13;;;22.90;17.60;;;;;;10534991;28;20261;-78
2022/05/30 18:05:24;;;;;;;1.10;1.00;;;22.90;18.50;;;;;;10513249;28;20232;-79
2022/05/30 18:10:33;;;;;;;1.43;1.00;;;22.90;19.00;;;;;;10503405;28;20228;-79
2022/05/30 18:15:45;;;;;;;0.90;0.90;;;22.90;18.60;;;;;;10505911;28;20224;-78
2022/05/30 18:20:49;;;;;;;0.90;0.90;;;22.80;19.50;;;;;;10506740;28;20497;-78
2022/05/30 18:25:54;;;;;;;1.17;1.10;;;22.70;19.20;;;;;;10500947;28;20219;-78
2022/05/30 18:31:04;;;;;;;0.90;0.90;;;22.50;19.40;;;;;;10505970;28;20270;-79
2022/05/30 18:36:25;;;;;;;1.43;1.40;;;22.40;19.60;;;;;;10521050;28;20216;-78
2022/05/30 18:41:35;;;;;;;1.60;1.50;;;22.30;19.50;;;;;;10520556;28;20230;-78
2022/05/30 18:46:43;;;;;;;1.43;1.23;;;22.20;20.00;;;;;;10512213;28;20208;-79
2022/05/30 18:51:47;;;;;;;1.50;1.40;;;22.00;19.30;;;;;;10508988;28;20234;-79
2022/05/30 18:56:53;;;;;;;1.60;1.50;;;21.90;20.00;;;;;;10502447;28;20951;-83
2022/05/30 19:01:57;;;;;;;1.40;1.30;;;21.70;20.20;;;;;;10509388;28;20294;-79
2022/05/30 19:07:01;;;;;;;2.17;1.30;;;21.60;20.30;;;;;;10508833;28;20224;-81
2022/05/30 19:12:09;;;;;;;1.13;1.03;;;21.40;20.30;;;;;;10503476;28;20216;-80
2022/05/30 19:17:23;;;;;;;1.53;0.93;;;21.20;20.30;;;;;;10502666;28;20318;-82
2022/05/30 19:22:27;;;;;;;1.57;1.20;;;21.10;20.60;;;;;;10510574;28;20224;-80
2022/05/30 19:27:34;;;;;;;1.10;1.10;;;21.00;20.80;;;;;;10507331;28;20452;-81
2022/05/30 19:32:39;;;;;;;1.17;1.00;;;20.80;20.80;;;;;;10506434;28;20224;-80
2022/05/30 19:37:43;;;;;;;1.20;1.10;;;20.70;20.90;;;;;;10503832;28;20246;-80
2022/05/30 19:42:49;;;;;;;1.07;1.07;;;20.60;21.10;;;;;;10496942;28;20352;-78
2022/05/30 19:47:52;;;;;;;1.80;1.70;;;20.40;21.20;;;;;;10514087;28;20530;-80
2022/05/30 19:52:57;;;;;;;1.40;1.30;;;20.30;21.20;;;;;;10512404;28;20294;-79
2022/05/30 19:58:03;;;;;;;1.40;1.30;;;20.20;21.50;;;;;;10502612;28;20255;-81
2022/05/30 20:03:07;;;;;;;1.13;1.13;;;20.10;21.70;;;;;;10490552;28;20798;-76
2022/05/30 20:08:11;;;;;;;1.30;1.20;;;19.90;21.60;;;;;;10480119;28;20223;-76
2022/05/30 20:13:15;;;;;;;1.40;1.30;;;19.80;21.80;;;;;;10490838;28;20238;-76
2022/05/30 20:18:38;;;;;;;1.47;1.30;;;19.70;22.00;;;;;;10483842;28;20243;-75
2022/05/30 20:23:42;;;;;;;1.13;1.10;;;19.60;21.90;;;;;;10483295;28;20930;-75
2022/05/30 20:28:46;;;;;;;2.50;1.13;;;19.40;21.70;;;;;;10488093;28;20235;-76
2022/05/30 20:33:50;;;;;;;1.40;1.30;;;19.10;21.90;;;;;;10497754;28;20750;-76
2022/05/30 20:38:53;;;;;;;2.00;1.40;;;18.90;22.00;;;;;;10493191;28;20238;-76
2022/05/30 20:44:00;;;;;;;1.40;1.30;;;18.70;22.10;;;;;;10494559;28;20216;-75
2022/05/30 20:49:04;;;;;;;1.40;1.30;;;18.50;22.40;;;;;;10526377;28;20310;-76
2022/05/30 20:54:08;;;;;;;2.53;1.40;;;18.20;22.50;;;;;;10534766;28;20227;-76
2022/05/30 20:59:13;;;;;;;1.73;1.63;;;18.10;22.90;;;;;;10540868;27;20636;-74
2022/05/30 21:04:16;;;;;;;1.60;1.50;;;18.00;23.10;;;;;;10537122;27;20281;-74
2022/05/30 21:09:19;;;;;;;1.83;1.37;;;17.70;22.80;;;;;;10538101;28;20222;-74
2022/05/30 21:14:24;;;;;;;2.07;1.50;;;17.30;23.10;;;;;;10542217;27;20246;-74
2022/05/30 21:19:34;;;;;;;1.40;1.30;;;17.10;23.40;;;;;;10543490;28;20219;-74
2022/05/30 21:24:38;;;;;;;1.70;1.60;;;17.00;23.90;;;;;;10546595;28;20226;-74
2022/05/30 21:29:43;;;;;;;1.80;1.70;;;17.00;23.60;;;;;;10548176;28;20234;-74
2022/05/30 21:34:48;;;;;;;2.03;1.63;;;16.90;23.90;;;;;;10545545;28;20231;-74
2022/05/30 21:39:52;;;;;;;2.13;1.43;;;16.90;23.90;;;;;;10549275;28;20228;-75
2022/05/30 21:44:56;;;;;;;1.93;1.83;;;16.90;24.00;;;;;;10507660;28;20228;-74
2022/05/30 21:50:00;;;;;;;1.80;1.70;;;16.80;24.20;;;;;;10502504;28;20620;-74
2022/05/30 21:55:04;;;;;;;1.63;1.53;;;16.80;24.00;;;;;;10535580;28;20234;-75
2022/05/30 22:00:16;;;;;;;1.90;1.80;;;16.70;24.30;;;;;;10548092;27;20230;-75
2022/05/30 22:05:20;;;;;;;2.97;1.90;;;16.70;24.90;;;;;;10547637;27;20234;-74
2022/05/30 22:10:24;;;;;;;2.13;1.80;;;16.60;24.30;;;;;;10549425;28;20250;-75
2022/05/30 22:15:29;;;;;;;2.03;1.57;;;16.50;24.50;;;;;;10544589;28;20337;-74
2022/05/30 22:20:34;;;;;;;1.50;1.40;;;16.30;24.50;;;;;;10544931;28;20247;-74
2022/05/30 22:25:42;;;;;;;1.50;1.40;;;16.20;24.80;;;;;;10544402;28;20239;-74
2022/05/30 22:30:46;;;;;;;2.20;1.53;;;16.00;24.80;;;;;;10547858;27;20712;-74
2022/05/30 22:35:53;;;;;;;1.80;1.70;;;15.90;25.10;;;;;;10545550;28;20219;-74
2022/05/30 22:40:56;;;;;;;1.47;1.37;;;15.90;25.30;;;;;;10547902;28;20223;-74
2022/05/30 22:46:01;;;;;;;1.60;1.50;;;15.80;25.00;;;;;;10547181;28;20539;-74
2022/05/30 22:51:06;;;;;;;1.87;1.77;;;15.70;25.30;;;;;;10524415;28;20271;-74
2022/05/30 22:56:10;;;;;;;1.83;1.73;;;15.70;25.40;;;;;;10541233;28;20289;-74
2022/05/30 23:01:15;;;;;;;2.37;1.77;;;15.50;25.10;;;;;;10543713;27;20704;-74
2022/05/30 23:06:18;;;;;;;1.60;1.50;;;15.40;25.60;;;;;;10536939;28;20234;-74
2022/05/30 23:11:26;;;;;;;1.73;1.63;;;15.30;25.50;;;;;;10543797;28;20673;-74
2022/05/30 23:16:40;;;;;;;1.90;1.50;;;15.20;25.90;;;;;;10542918;28;20763;-74
2022/05/30 23:21:46;;;;;;;1.57;1.47;;;15.10;26.50;;;;;;10542597;28;20223;-74
2022/05/30 23:26:50;;;;;;;1.67;1.57;;;15.10;26.00;;;;;;10543342;27;20234;-74
2022/05/30 23:31:56;;;;;;;1.70;1.60;;;15.10;26.00;;;;;;10540966;27;20215;-74
2022/05/30 23:36:59;;;;;;;2.57;1.53;;;15.10;26.10;;;;;;10541439;28;20314;-74
2022/05/30 23:47:26;;;;;;;1.53;1.40;;;15.00;26.00;;;;;;10541732;28;20701;-74
2022/05/30 23:52:30;;;;;;;1.70;1.60;;;14.90;26.10;;;;;;10545535;28;20231;-74
2022/05/30 23:57:34;;;;;;;1.53;1.43;;;14.90;25.90;;;;;;10541890;28;20226;-74
